sensor_id;sensor_type;location;lat;lon;timestamp;P1;durP1;ratioP1;P2;durP2;ratioP2
57643;SDS011;43474;46.510;6.686;2023-08-01T00:02:25;4.05;;;2.92;;
57643;SDS011;43474;46.510;6.686;2023-08-01T00:04:51;5.90;;;2.78;;
57643;SDS011;43474;46.510;6.686;2023-08-01T00:07:16;4.65;;;2.80;;
57643;SDS011;43474;46.510;6.686;2023-08-01T00:09:42;3.97;;;2.53;;
57643;SDS011;43474;46.510;6.686;2023-08-01T00:12:07;3.97;;;2.78;;
57643;SDS011;43474;46.510;6.686;2023-08-01T00:14:35;4.80;;;2.60;;
57643;SDS011;43474;46.510;6.686;2023-08-01T00:17:01;3.88;;;2.60;;
57643;SDS011;43474;46.510;6.686;2023-08-01T00:19:27;4.25;;;2.50;;
57643;SDS011;43474;46.510;6.686;2023-08-01T00:21:53;5.75;;;2.95;;
57643;SDS011;43474;46.510;6.686;2023-08-01T00:24:18;4.50;;;2.35;;
57643;SDS011;43474;46.510;6.686;2023-08-01T00:26:44;6.63;;;2.97;;
57643;SDS011;43474;46.510;6.686;2023-08-01T00:29:09;4.43;;;2.70;;
57643;SDS011;43474;46.510;6.686;2023-08-01T00:31:35;4.70;;;2.70;;
57643;SDS011;43474;46.510;6.686;2023-08-01T00:34:01;6.05;;;3.17;;
57643;SDS011;43474;46.510;6.686;2023-08-01T00:36:26;3.58;;;2.45;;
57643;SDS011;43474;46.510;6.686;2023-08-01T00:38:52;4.07;;;3.10;;
57643;SDS011;43474;46.510;6.686;2023-08-01T00:41:17;5.03;;;2.80;;
57643;SDS011;43474;46.510;6.686;2023-08-01T00:43:43;4.78;;;2.97;;
57643;SDS011;43474;46.510;6.686;2023-08-01T00:46:08;3.33;;;2.60;;
57643;SDS011;43474;46.510;6.686;2023-08-01T00:48:34;4.90;;;3.17;;
57643;SDS011;43474;46.510;6.686;2023-08-01T00:51:01;4.90;;;2.90;;
57643;SDS011;43474;46.510;6.686;2023-08-01T00:53:30;4.43;;;2.63;;
57643;SDS011;43474;46.510;6.686;2023-08-01T00:55:56;4.88;;;2.70;;
57643;SDS011;43474;46.510;6.686;2023-08-01T00:58:23;5.20;;;2.60;;
57643;SDS011;43474;46.510;6.686;2023-08-01T01:00:48;4.15;;;2.60;;
57643;SDS011;43474;46.510;6.686;2023-08-01T01:03:14;4.80;;;2.42;;
57643;SDS011;43474;46.510;6.686;2023-08-01T01:05:41;5.03;;;2.70;;
57643;SDS011;43474;46.510;6.686;2023-08-01T01:08:12;3.20;;;2.55;;
57643;SDS011;43474;46.510;6.686;2023-08-01T01:10:38;4.05;;;2.65;;
57643;SDS011;43474;46.510;6.686;2023-08-01T01:13:03;4.05;;;2.47;;
57643;SDS011;43474;46.510;6.686;2023-08-01T01:15:29;4.30;;;2.75;;
57643;SDS011;43474;46.510;6.686;2023-08-01T01:17:54;4.00;;;2.70;;
57643;SDS011;43474;46.510;6.686;2023-08-01T01:20:22;4.03;;;2.70;;
57643;SDS011;43474;46.510;6.686;2023-08-01T01:22:49;4.13;;;2.40;;
57643;SDS011;43474;46.510;6.686;2023-08-01T01:25:18;4.13;;;2.72;;
57643;SDS011;43474;46.510;6.686;2023-08-01T01:27:45;4.47;;;2.50;;
57643;SDS011;43474;46.510;6.686;2023-08-01T01:30:12;3.25;;;2.38;;
57643;SDS011;43474;46.510;6.686;2023-08-01T01:32:38;3.58;;;2.50;;
57643;SDS011;43474;46.510;6.686;2023-08-01T01:35:04;4.03;;;2.60;;
57643;SDS011;43474;46.510;6.686;2023-08-01T01:37:30;5.95;;;3.05;;
57643;SDS011;43474;46.510;6.686;2023-08-01T01:39:55;3.60;;;2.58;;
57643;SDS011;43474;46.510;6.686;2023-08-01T01:42:21;3.22;;;2.25;;
57643;SDS011;43474;46.510;6.686;2023-08-01T01:44:46;4.25;;;2.50;;
57643;SDS011;43474;46.510;6.686;2023-08-01T01:47:12;6.18;;;2.30;;
57643;SDS011;43474;46.510;6.686;2023-08-01T01:49:37;4.82;;;2.80;;
57643;SDS011;43474;46.510;6.686;2023-08-01T01:52:03;3.45;;;2.40;;
57643;SDS011;43474;46.510;6.686;2023-08-01T01:54:29;3.83;;;2.50;;
57643;SDS011;43474;46.510;6.686;2023-08-01T01:56:54;4.10;;;2.42;;
57643;SDS011;43474;46.510;6.686;2023-08-01T01:59:20;4.05;;;2.90;;
57643;SDS011;43474;46.510;6.686;2023-08-01T02:01:45;3.60;;;2.53;;
57643;SDS011;43474;46.510;6.686;2023-08-01T02:04:11;4.15;;;2.47;;
57643;SDS011;43474;46.510;6.686;2023-08-01T02:06:37;4.25;;;2.20;;
57643;SDS011;43474;46.510;6.686;2023-08-01T02:09:02;4.15;;;2.55;;
57643;SDS011;43474;46.510;6.686;2023-08-01T02:11:29;4.75;;;2.67;;
57643;SDS011;43474;46.510;6.686;2023-08-01T02:13:55;5.15;;;2.53;;
57643;SDS011;43474;46.510;6.686;2023-08-01T02:16:21;5.40;;;1.92;;
57643;SDS011;43474;46.510;6.686;2023-08-01T02:18:46;3.30;;;2.28;;
57643;SDS011;43474;46.510;6.686;2023-08-01T02:21:12;4.75;;;2.63;;
57643;SDS011;43474;46.510;6.686;2023-08-01T02:23:37;3.70;;;2.35;;
57643;SDS011;43474;46.510;6.686;2023-08-01T02:26:03;4.60;;;2.65;;
57643;SDS011;43474;46.510;6.686;2023-08-01T02:28:29;4.03;;;2.33;;
57643;SDS011;43474;46.510;6.686;2023-08-01T02:30:54;4.03;;;2.80;;
57643;SDS011;43474;46.510;6.686;2023-08-01T02:33:20;5.07;;;2.67;;
57643;SDS011;43474;46.510;6.686;2023-08-01T02:35:46;3.65;;;2.60;;
57643;SDS011;43474;46.510;6.686;2023-08-01T02:38:12;3.67;;;2.50;;
57643;SDS011;43474;46.510;6.686;2023-08-01T02:40:38;5.07;;;2.63;;
57643;SDS011;43474;46.510;6.686;2023-08-01T02:43:03;5.32;;;2.83;;
57643;SDS011;43474;46.510;6.686;2023-08-01T02:45:29;4.45;;;2.47;;
57643;SDS011;43474;46.510;6.686;2023-08-01T02:47:54;5.10;;;2.88;;
57643;SDS011;43474;46.510;6.686;2023-08-01T02:50:20;4.35;;;2.60;;
57643;SDS011;43474;46.510;6.686;2023-08-01T02:52:46;3.97;;;2.40;;
57643;SDS011;43474;46.510;6.686;2023-08-01T02:55:11;4.45;;;2.90;;
57643;SDS011;43474;46.510;6.686;2023-08-01T02:57:37;4.57;;;2.60;;
57643;SDS011;43474;46.510;6.686;2023-08-01T03:00:03;3.60;;;2.40;;
57643;SDS011;43474;46.510;6.686;2023-08-01T03:02:31;4.15;;;2.40;;
57643;SDS011;43474;46.510;6.686;2023-08-01T03:04:57;3.38;;;2.47;;
57643;SDS011;43474;46.510;6.686;2023-08-01T03:07:22;3.55;;;2.60;;
57643;SDS011;43474;46.510;6.686;2023-08-01T03:09:48;4.95;;;2.83;;
57643;SDS011;43474;46.510;6.686;2023-08-01T03:12:14;4.18;;;2.63;;
57643;SDS011;43474;46.510;6.686;2023-08-01T03:14:39;4.00;;;2.80;;
57643;SDS011;43474;46.510;6.686;2023-08-01T03:17:08;3.35;;;2.70;;
57643;SDS011;43474;46.510;6.686;2023-08-01T03:19:34;3.67;;;2.60;;
57643;SDS011;43474;46.510;6.686;2023-08-01T03:21:59;4.40;;;2.67;;
57643;SDS011;43474;46.510;6.686;2023-08-01T03:24:25;3.90;;;2.70;;
57643;SDS011;43474;46.510;6.686;2023-08-01T03:26:51;4.68;;;2.92;;
57643;SDS011;43474;46.510;6.686;2023-08-01T03:29:16;9.88;;;2.92;;
57643;SDS011;43474;46.510;6.686;2023-08-01T03:31:42;4.65;;;2.50;;
57643;SDS011;43474;46.510;6.686;2023-08-01T03:34:08;3.85;;;2.53;;
57643;SDS011;43474;46.510;6.686;2023-08-01T03:36:34;4.30;;;2.75;;
57643;SDS011;43474;46.510;6.686;2023-08-01T03:39:00;4.32;;;2.60;;
57643;SDS011;43474;46.510;6.686;2023-08-01T03:41:25;3.78;;;2.20;;
57643;SDS011;43474;46.510;6.686;2023-08-01T03:43:51;3.75;;;2.53;;
57643;SDS011;43474;46.510;6.686;2023-08-01T03:46:17;3.95;;;2.80;;
57643;SDS011;43474;46.510;6.686;2023-08-01T03:48:42;4.72;;;2.50;;
57643;SDS011;43474;46.510;6.686;2023-08-01T03:51:08;5.57;;;3.15;;
57643;SDS011;43474;46.510;6.686;2023-08-01T03:53:34;5.20;;;2.72;;
57643;SDS011;43474;46.510;6.686;2023-08-01T03:55:59;4.35;;;2.70;;
57643;SDS011;43474;46.510;6.686;2023-08-01T03:58:25;5.28;;;2.80;;
57643;SDS011;43474;46.510;6.686;2023-08-01T04:00:50;3.80;;;2.80;;
57643;SDS011;43474;46.510;6.686;2023-08-01T04:03:16;4.97;;;2.53;;
57643;SDS011;43474;46.510;6.686;2023-08-01T04:05:42;3.70;;;2.67;;
57643;SDS011;43474;46.510;6.686;2023-08-01T04:08:08;4.80;;;2.63;;
57643;SDS011;43474;46.510;6.686;2023-08-01T04:10:33;4.47;;;2.80;;
57643;SDS011;43474;46.510;6.686;2023-08-01T04:12:59;3.58;;;2.60;;
57643;SDS011;43474;46.510;6.686;2023-08-01T04:15:24;4.30;;;2.67;;
57643;SDS011;43474;46.510;6.686;2023-08-01T04:17:50;4.35;;;2.75;;
57643;SDS011;43474;46.510;6.686;2023-08-01T04:20:15;4.18;;;2.55;;
57643;SDS011;43474;46.510;6.686;2023-08-01T04:22:41;4.85;;;3.03;;
57643;SDS011;43474;46.510;6.686;2023-08-01T04:25:07;4.68;;;2.60;;
57643;SDS011;43474;46.510;6.686;2023-08-01T04:27:33;4.82;;;2.50;;
57643;SDS011;43474;46.510;6.686;2023-08-01T04:29:58;4.78;;;2.90;;
57643;SDS011;43474;46.510;6.686;2023-08-01T04:32:24;5.60;;;2.83;;
57643;SDS011;43474;46.510;6.686;2023-08-01T04:34:49;5.18;;;2.60;;
57643;SDS011;43474;46.510;6.686;2023-08-01T04:37:15;4.25;;;2.90;;
57643;SDS011;43474;46.510;6.686;2023-08-01T04:39:40;4.18;;;2.75;;
57643;SDS011;43474;46.510;6.686;2023-08-01T04:42:06;5.88;;;2.80;;
57643;SDS011;43474;46.510;6.686;2023-08-01T04:44:31;4.38;;;2.90;;
57643;SDS011;43474;46.510;6.686;2023-08-01T04:46:57;4.28;;;2.35;;
57643;SDS011;43474;46.510;6.686;2023-08-01T04:49:23;3.75;;;2.30;;
57643;SDS011;43474;46.510;6.686;2023-08-01T04:51:49;5.35;;;2.92;;
57643;SDS011;43474;46.510;6.686;2023-08-01T04:54:15;4.15;;;2.55;;
57643;SDS011;43474;46.510;6.686;2023-08-01T04:56:41;5.28;;;2.67;;
57643;SDS011;43474;46.510;6.686;2023-08-01T04:59:06;4.18;;;2.70;;
57643;SDS011;43474;46.510;6.686;2023-08-01T05:01:32;5.93;;;2.53;;
57643;SDS011;43474;46.510;6.686;2023-08-01T05:03:58;4.53;;;2.55;;
57643;SDS011;43474;46.510;6.686;2023-08-01T05:06:24;4.70;;;2.88;;
57643;SDS011;43474;46.510;6.686;2023-08-01T05:08:49;4.13;;;2.58;;
57643;SDS011;43474;46.510;6.686;2023-08-01T05:11:14;4.20;;;2.72;;
57643;SDS011;43474;46.510;6.686;2023-08-01T05:13:40;4.18;;;2.53;;
57643;SDS011;43474;46.510;6.686;2023-08-01T05:16:06;5.80;;;2.97;;
57643;SDS011;43474;46.510;6.686;2023-08-01T05:18:31;3.65;;;2.55;;
57643;SDS011;43474;46.510;6.686;2023-08-01T05:20:57;4.30;;;3.05;;
57643;SDS011;43474;46.510;6.686;2023-08-01T05:23:22;3.38;;;2.28;;
57643;SDS011;43474;46.510;6.686;2023-08-01T05:25:48;3.22;;;2.40;;
57643;SDS011;43474;46.510;6.686;2023-08-01T05:28:13;5.30;;;2.95;;
57643;SDS011;43474;46.510;6.686;2023-08-01T05:30:40;4.15;;;2.55;;
57643;SDS011;43474;46.510;6.686;2023-08-01T05:33:05;4.10;;;2.45;;
57643;SDS011;43474;46.510;6.686;2023-08-01T05:35:31;4.45;;;2.75;;
57643;SDS011;43474;46.510;6.686;2023-08-01T05:37:56;4.38;;;2.28;;
57643;SDS011;43474;46.510;6.686;2023-08-01T05:40:22;4.13;;;2.60;;
57643;SDS011;43474;46.510;6.686;2023-08-01T05:42:48;3.13;;;2.17;;
57643;SDS011;43474;46.510;6.686;2023-08-01T05:45:13;4.20;;;2.45;;
57643;SDS011;43474;46.510;6.686;2023-08-01T05:47:39;4.00;;;2.78;;
57643;SDS011;43474;46.510;6.686;2023-08-01T05:50:05;4.82;;;2.65;;
57643;SDS011;43474;46.510;6.686;2023-08-01T05:52:31;4.38;;;2.83;;
57643;SDS011;43474;46.510;6.686;2023-08-01T05:54:58;4.15;;;2.60;;
57643;SDS011;43474;46.510;6.686;2023-08-01T05:57:24;4.75;;;2.75;;
57643;SDS011;43474;46.510;6.686;2023-08-01T05:59:49;5.13;;;3.00;;
57643;SDS011;43474;46.510;6.686;2023-08-01T06:02:15;4.53;;;3.05;;
57643;SDS011;43474;46.510;6.686;2023-08-01T06:04:40;4.00;;;2.65;;
57643;SDS011;43474;46.510;6.686;2023-08-01T06:07:06;4.05;;;2.58;;
57643;SDS011;43474;46.510;6.686;2023-08-01T06:09:32;5.00;;;2.95;;
57643;SDS011;43474;46.510;6.686;2023-08-01T06:11:57;5.03;;;2.65;;
57643;SDS011;43474;46.510;6.686;2023-08-01T06:14:23;4.90;;;2.50;;
57643;SDS011;43474;46.510;6.686;2023-08-01T06:16:48;3.53;;;2.60;;
57643;SDS011;43474;46.510;6.686;2023-08-01T06:19:14;3.85;;;2.40;;
57643;SDS011;43474;46.510;6.686;2023-08-01T06:21:39;3.85;;;2.72;;
57643;SDS011;43474;46.510;6.686;2023-08-01T06:24:05;6.45;;;2.83;;
57643;SDS011;43474;46.510;6.686;2023-08-01T06:26:31;4.53;;;2.42;;
57643;SDS011;43474;46.510;6.686;2023-08-01T06:28:56;4.47;;;2.55;;
57643;SDS011;43474;46.510;6.686;2023-08-01T06:31:22;3.90;;;2.53;;
57643;SDS011;43474;46.510;6.686;2023-08-01T06:33:47;4.47;;;2.70;;
57643;SDS011;43474;46.510;6.686;2023-08-01T06:36:13;4.88;;;2.95;;
57643;SDS011;43474;46.510;6.686;2023-08-01T06:38:39;3.63;;;2.58;;
57643;SDS011;43474;46.510;6.686;2023-08-01T06:41:04;4.70;;;2.88;;
57643;SDS011;43474;46.510;6.686;2023-08-01T06:43:30;5.55;;;3.22;;
57643;SDS011;43474;46.510;6.686;2023-08-01T06:45:55;6.47;;;3.00;;
57643;SDS011;43474;46.510;6.686;2023-08-01T06:48:21;4.80;;;3.15;;
57643;SDS011;43474;46.510;6.686;2023-08-01T06:50:46;5.00;;;2.85;;
57643;SDS011;43474;46.510;6.686;2023-08-01T06:53:12;4.15;;;2.90;;
57643;SDS011;43474;46.510;6.686;2023-08-01T06:55:38;4.75;;;2.90;;
57643;SDS011;43474;46.510;6.686;2023-08-01T06:58:03;4.22;;;3.05;;
57643;SDS011;43474;46.510;6.686;2023-08-01T07:00:30;4.35;;;3.00;;
57643;SDS011;43474;46.510;6.686;2023-08-01T07:02:56;5.28;;;3.08;;
57643;SDS011;43474;46.510;6.686;2023-08-01T07:05:21;6.55;;;3.20;;
57643;SDS011;43474;46.510;6.686;2023-08-01T07:07:47;3.88;;;2.70;;
57643;SDS011;43474;46.510;6.686;2023-08-01T07:10:12;4.60;;;3.00;;
57643;SDS011;43474;46.510;6.686;2023-08-01T07:12:38;6.18;;;3.13;;
57643;SDS011;43474;46.510;6.686;2023-08-01T07:15:03;4.78;;;2.97;;
57643;SDS011;43474;46.510;6.686;2023-08-01T07:17:29;6.85;;;3.25;;
57643;SDS011;43474;46.510;6.686;2023-08-01T07:19:55;4.72;;;3.20;;
57643;SDS011;43474;46.510;6.686;2023-08-01T07:22:20;4.88;;;3.15;;
57643;SDS011;43474;46.510;6.686;2023-08-01T07:24:46;5.18;;;3.25;;
57643;SDS011;43474;46.510;6.686;2023-08-01T07:27:12;7.43;;;2.88;;
57643;SDS011;43474;46.510;6.686;2023-08-01T07:29:37;4.82;;;3.15;;
57643;SDS011;43474;46.510;6.686;2023-08-01T07:32:03;6.25;;;3.50;;
57643;SDS011;43474;46.510;6.686;2023-08-01T07:34:29;5.32;;;3.03;;
57643;SDS011;43474;46.510;6.686;2023-08-01T07:36:55;6.97;;;3.50;;
57643;SDS011;43474;46.510;6.686;2023-08-01T07:39:20;4.93;;;2.63;;
57643;SDS011;43474;46.510;6.686;2023-08-01T07:41:47;4.20;;;2.72;;
57643;SDS011;43474;46.510;6.686;2023-08-01T07:44:12;4.57;;;3.00;;
57643;SDS011;43474;46.510;6.686;2023-08-01T07:46:38;4.80;;;3.00;;
57643;SDS011;43474;46.510;6.686;2023-08-01T07:49:03;4.90;;;2.75;;
57643;SDS011;43474;46.510;6.686;2023-08-01T07:51:29;4.93;;;3.15;;
57643;SDS011;43474;46.510;6.686;2023-08-01T07:53:54;5.43;;;2.60;;
57643;SDS011;43474;46.510;6.686;2023-08-01T07:56:20;5.78;;;2.85;;
57643;SDS011;43474;46.510;6.686;2023-08-01T07:58:46;4.80;;;3.10;;
57643;SDS011;43474;46.510;6.686;2023-08-01T08:01:11;5.78;;;2.90;;
57643;SDS011;43474;46.510;6.686;2023-08-01T08:03:37;6.72;;;3.25;;
57643;SDS011;43474;46.510;6.686;2023-08-01T08:06:03;5.75;;;3.10;;
57643;SDS011;43474;46.510;6.686;2023-08-01T08:08:29;5.32;;;2.92;;
57643;SDS011;43474;46.510;6.686;2023-08-01T08:10:55;5.00;;;3.10;;
57643;SDS011;43474;46.510;6.686;2023-08-01T08:13:21;5.30;;;3.03;;
57643;SDS011;43474;46.510;6.686;2023-08-01T08:15:47;4.45;;;2.83;;
57643;SDS011;43474;46.510;6.686;2023-08-01T08:18:12;4.82;;;2.92;;
57643;SDS011;43474;46.510;6.686;2023-08-01T08:20:40;4.70;;;3.08;;
57643;SDS011;43474;46.510;6.686;2023-08-01T08:23:07;6.60;;;3.03;;
57643;SDS011;43474;46.510;6.686;2023-08-01T08:25:33;4.85;;;3.20;;
57643;SDS011;43474;46.510;6.686;2023-08-01T08:27:59;6.18;;;3.30;;
57643;SDS011;43474;46.510;6.686;2023-08-01T08:30:24;5.70;;;3.10;;
57643;SDS011;43474;46.510;6.686;2023-08-01T08:32:50;4.60;;;2.92;;
57643;SDS011;43474;46.510;6.686;2023-08-01T08:35:16;5.40;;;3.13;;
57643;SDS011;43474;46.510;6.686;2023-08-01T08:37:41;5.38;;;3.05;;
57643;SDS011;43474;46.510;6.686;2023-08-01T08:40:07;6.68;;;3.47;;
57643;SDS011;43474;46.510;6.686;2023-08-01T08:42:33;5.82;;;3.50;;
57643;SDS011;43474;46.510;6.686;2023-08-01T08:45:01;5.75;;;2.90;;
57643;SDS011;43474;46.510;6.686;2023-08-01T08:47:29;5.93;;;3.40;;
57643;SDS011;43474;46.510;6.686;2023-08-01T08:49:56;8.45;;;3.05;;
57643;SDS011;43474;46.510;6.686;2023-08-01T08:52:23;6.78;;;3.10;;
57643;SDS011;43474;46.510;6.686;2023-08-01T08:54:50;5.45;;;3.75;;
57643;SDS011;43474;46.510;6.686;2023-08-01T08:57:17;10.40;;;3.47;;
57643;SDS011;43474;46.510;6.686;2023-08-01T08:59:44;5.50;;;2.85;;
57643;SDS011;43474;46.510;6.686;2023-08-01T09:02:11;5.25;;;2.70;;
57643;SDS011;43474;46.510;6.686;2023-08-01T09:04:40;7.10;;;3.47;;
57643;SDS011;43474;46.510;6.686;2023-08-01T09:07:07;5.40;;;3.13;;
57643;SDS011;43474;46.510;6.686;2023-08-01T09:09:36;4.80;;;2.92;;
57643;SDS011;43474;46.510;6.686;2023-08-01T09:12:02;4.60;;;2.78;;
57643;SDS011;43474;46.510;6.686;2023-08-01T09:14:29;5.05;;;2.88;;
57643;SDS011;43474;46.510;6.686;2023-08-01T09:16:54;4.53;;;3.00;;
57643;SDS011;43474;46.510;6.686;2023-08-01T09:19:22;4.95;;;2.67;;
57643;SDS011;43474;46.510;6.686;2023-08-01T09:21:50;5.63;;;2.75;;
57643;SDS011;43474;46.510;6.686;2023-08-01T09:24:17;4.20;;;2.80;;
57643;SDS011;43474;46.510;6.686;2023-08-01T09:26:46;4.80;;;2.78;;
57643;SDS011;43474;46.510;6.686;2023-08-01T09:29:15;4.50;;;2.40;;
57643;SDS011;43474;46.510;6.686;2023-08-01T09:31:42;3.80;;;2.63;;
57643;SDS011;43474;46.510;6.686;2023-08-01T09:34:21;4.30;;;2.97;;
57643;SDS011;43474;46.510;6.686;2023-08-01T09:36:48;4.78;;;2.50;;
57643;SDS011;43474;46.510;6.686;2023-08-01T09:39:16;3.47;;;2.22;;
57643;SDS011;43474;46.510;6.686;2023-08-01T09:41:43;3.75;;;2.20;;
57643;SDS011;43474;46.510;6.686;2023-08-01T09:44:15;3.38;;;2.30;;
57643;SDS011;43474;46.510;6.686;2023-08-01T09:46:41;5.00;;;2.53;;
57643;SDS011;43474;46.510;6.686;2023-08-01T09:49:08;3.88;;;2.20;;
57643;SDS011;43474;46.510;6.686;2023-08-01T09:51:45;3.92;;;2.40;;
57643;SDS011;43474;46.510;6.686;2023-08-01T09:54:15;5.07;;;2.30;;
57643;SDS011;43474;46.510;6.686;2023-08-01T09:56:43;4.70;;;2.22;;
57643;SDS011;43474;46.510;6.686;2023-08-01T09:59:10;3.40;;;2.20;;
57643;SDS011;43474;46.510;6.686;2023-08-01T10:01:36;3.95;;;2.03;;
57643;SDS011;43474;46.510;6.686;2023-08-01T10:04:03;3.60;;;2.28;;
57643;SDS011;43474;46.510;6.686;2023-08-01T10:06:32;3.65;;;2.25;;
57643;SDS011;43474;46.510;6.686;2023-08-01T10:08:59;3.63;;;2.28;;
57643;SDS011;43474;46.510;6.686;2023-08-01T10:11:25;4.43;;;1.95;;
57643;SDS011;43474;46.510;6.686;2023-08-01T10:13:52;3.63;;;2.33;;
57643;SDS011;43474;46.510;6.686;2023-08-01T10:16:18;4.13;;;2.15;;
57643;SDS011;43474;46.510;6.686;2023-08-01T10:18:46;5.22;;;2.75;;
57643;SDS011;43474;46.510;6.686;2023-08-01T10:21:12;3.83;;;2.35;;
57643;SDS011;43474;46.510;6.686;2023-08-01T10:23:39;4.80;;;2.47;;
57643;SDS011;43474;46.510;6.686;2023-08-01T10:26:06;3.60;;;2.42;;
57643;SDS011;43474;46.510;6.686;2023-08-01T10:28:35;4.85;;;2.58;;
57643;SDS011;43474;46.510;6.686;2023-08-01T10:31:08;4.68;;;2.55;;
57643;SDS011;43474;46.510;6.686;2023-08-01T10:33:41;3.50;;;2.22;;
57643;SDS011;43474;46.510;6.686;2023-08-01T10:36:14;4.45;;;2.38;;
57643;SDS011;43474;46.510;6.686;2023-08-01T10:38:53;5.20;;;2.67;;
57643;SDS011;43474;46.510;6.686;2023-08-01T10:41:27;5.32;;;2.50;;
57643;SDS011;43474;46.510;6.686;2023-08-01T10:44:07;3.55;;;2.42;;
57643;SDS011;43474;46.510;6.686;2023-08-01T10:49:19;3.63;;;2.30;;
57643;SDS011;43474;46.510;6.686;2023-08-01T10:51:46;4.03;;;1.88;;
57643;SDS011;43474;46.510;6.686;2023-08-01T10:54:19;4.57;;;2.00;;
57643;SDS011;43474;46.510;6.686;2023-08-01T10:56:50;3.92;;;1.98;;
57643;SDS011;43474;46.510;6.686;2023-08-01T10:59:18;3.67;;;2.10;;
57643;SDS011;43474;46.510;6.686;2023-08-01T11:01:47;3.33;;;1.92;;
57643;SDS011;43474;46.510;6.686;2023-08-01T11:04:20;3.20;;;1.83;;
57643;SDS011;43474;46.510;6.686;2023-08-01T11:06:56;2.73;;;1.77;;
57643;SDS011;43474;46.510;6.686;2023-08-01T11:09:25;2.60;;;2.05;;
57643;SDS011;43474;46.510;6.686;2023-08-01T11:11:58;4.55;;;2.05;;
57643;SDS011;43474;46.510;6.686;2023-08-01T11:14:26;2.53;;;1.90;;
57643;SDS011;43474;46.510;6.686;2023-08-01T11:16:53;4.07;;;2.10;;
57643;SDS011;43474;46.510;6.686;2023-08-01T11:19:21;4.13;;;1.73;;
57643;SDS011;43474;46.510;6.686;2023-08-01T11:21:48;2.92;;;2.05;;
57643;SDS011;43474;46.510;6.686;2023-08-01T11:24:14;3.45;;;1.90;;
57643;SDS011;43474;46.510;6.686;2023-08-01T11:26:41;4.82;;;2.00;;
57643;SDS011;43474;46.510;6.686;2023-08-01T11:29:08;2.83;;;2.00;;
57643;SDS011;43474;46.510;6.686;2023-08-01T11:31:34;3.10;;;2.00;;
57643;SDS011;43474;46.510;6.686;2023-08-01T11:34:00;3.03;;;1.90;;
57643;SDS011;43474;46.510;6.686;2023-08-01T11:36:26;4.53;;;2.80;;
57643;SDS011;43474;46.510;6.686;2023-08-01T11:38:53;4.65;;;2.47;;
57643;SDS011;43474;46.510;6.686;2023-08-01T11:41:21;4.07;;;2.22;;
57643;SDS011;43474;46.510;6.686;2023-08-01T11:43:47;4.20;;;2.00;;
57643;SDS011;43474;46.510;6.686;2023-08-01T11:46:12;4.28;;;2.15;;
57643;SDS011;43474;46.510;6.686;2023-08-01T11:48:38;5.07;;;1.65;;
57643;SDS011;43474;46.510;6.686;2023-08-01T11:51:04;6.13;;;2.60;;
57643;SDS011;43474;46.510;6.686;2023-08-01T11:53:30;5.35;;;2.20;;
57643;SDS011;43474;46.510;6.686;2023-08-01T11:55:57;5.72;;;2.22;;
57643;SDS011;43474;46.510;6.686;2023-08-01T11:58:33;3.95;;;2.15;;
57643;SDS011;43474;46.510;6.686;2023-08-01T12:01:09;3.05;;;2.05;;
57643;SDS011;43474;46.510;6.686;2023-08-01T12:03:52;3.28;;;2.00;;
57643;SDS011;43474;46.510;6.686;2023-08-01T12:06:20;3.00;;;2.28;;
57643;SDS011;43474;46.510;6.686;2023-08-01T12:08:52;5.03;;;2.08;;
57643;SDS011;43474;46.510;6.686;2023-08-01T12:13:46;3.53;;;2.10;;
57643;SDS011;43474;46.510;6.686;2023-08-01T12:16:12;5.68;;;2.17;;
57643;SDS011;43474;46.510;6.686;2023-08-01T12:18:40;3.53;;;2.08;;
57643;SDS011;43474;46.510;6.686;2023-08-01T12:21:08;6.60;;;1.90;;
57643;SDS011;43474;46.510;6.686;2023-08-01T12:23:33;4.88;;;2.05;;
57643;SDS011;43474;46.510;6.686;2023-08-01T12:26:00;3.50;;;2.13;;
57643;SDS011;43474;46.510;6.686;2023-08-01T12:28:26;3.28;;;2.00;;
57643;SDS011;43474;46.510;6.686;2023-08-01T12:30:51;2.85;;;1.90;;
57643;SDS011;43474;46.510;6.686;2023-08-01T12:33:17;3.15;;;2.00;;
57643;SDS011;43474;46.510;6.686;2023-08-01T12:35:42;3.13;;;1.70;;
57643;SDS011;43474;46.510;6.686;2023-08-01T12:38:09;3.13;;;1.90;;
57643;SDS011;43474;46.510;6.686;2023-08-01T12:40:34;7.15;;;2.05;;
57643;SDS011;43474;46.510;6.686;2023-08-01T12:43:00;3.33;;;1.58;;
57643;SDS011;43474;46.510;6.686;2023-08-01T12:45:26;5.03;;;1.80;;
57643;SDS011;43474;46.510;6.686;2023-08-01T12:47:52;2.80;;;1.73;;
57643;SDS011;43474;46.510;6.686;2023-08-01T12:50:17;2.50;;;1.77;;
57643;SDS011;43474;46.510;6.686;2023-08-01T12:52:43;4.32;;;2.00;;
57643;SDS011;43474;46.510;6.686;2023-08-01T12:55:08;4.40;;;1.60;;
57643;SDS011;43474;46.510;6.686;2023-08-01T12:57:34;3.70;;;1.85;;
57643;SDS011;43474;46.510;6.686;2023-08-01T12:59:59;3.67;;;1.90;;
57643;SDS011;43474;46.510;6.686;2023-08-01T13:02:28;3.42;;;2.00;;
57643;SDS011;43474;46.510;6.686;2023-08-01T13:04:54;2.17;;;1.70;;
57643;SDS011;43474;46.510;6.686;2023-08-01T13:07:20;2.47;;;1.70;;
57643;SDS011;43474;46.510;6.686;2023-08-01T13:09:45;2.75;;;1.60;;
57643;SDS011;43474;46.510;6.686;2023-08-01T13:12:11;3.25;;;1.67;;
57643;SDS011;43474;46.510;6.686;2023-08-01T13:14:36;2.53;;;1.77;;
57643;SDS011;43474;46.510;6.686;2023-08-01T13:17:02;3.40;;;1.77;;
57643;SDS011;43474;46.510;6.686;2023-08-01T13:19:27;2.05;;;1.80;;
57643;SDS011;43474;46.510;6.686;2023-08-01T13:21:53;2.92;;;1.70;;
57643;SDS011;43474;46.510;6.686;2023-08-01T13:24:19;3.30;;;1.88;;
57643;SDS011;43474;46.510;6.686;2023-08-01T13:26:44;2.05;;;1.50;;
57643;SDS011;43474;46.510;6.686;2023-08-01T13:29:10;2.08;;;1.60;;
57643;SDS011;43474;46.510;6.686;2023-08-01T13:31:36;2.72;;;1.63;;
57643;SDS011;43474;46.510;6.686;2023-08-01T13:34:01;2.75;;;2.05;;
57643;SDS011;43474;46.510;6.686;2023-08-01T13:36:27;2.25;;;1.70;;
57643;SDS011;43474;46.510;6.686;2023-08-01T13:38:52;2.92;;;1.88;;
57643;SDS011;43474;46.510;6.686;2023-08-01T13:41:18;2.78;;;1.85;;
57643;SDS011;43474;46.510;6.686;2023-08-01T13:43:43;2.53;;;1.75;;
57643;SDS011;43474;46.510;6.686;2023-08-01T13:46:13;2.33;;;1.50;;
57643;SDS011;43474;46.510;6.686;2023-08-01T13:48:43;3.47;;;1.85;;
57643;SDS011;43474;46.510;6.686;2023-08-01T13:51:09;2.95;;;1.90;;
57643;SDS011;43474;46.510;6.686;2023-08-01T13:53:35;2.35;;;1.70;;
57643;SDS011;43474;46.510;6.686;2023-08-01T13:56:06;3.00;;;1.80;;
57643;SDS011;43474;46.510;6.686;2023-08-01T13:58:32;3.25;;;1.75;;
57643;SDS011;43474;46.510;6.686;2023-08-01T14:01:04;2.58;;;1.60;;
57643;SDS011;43474;46.510;6.686;2023-08-01T14:03:32;2.72;;;1.73;;
57643;SDS011;43474;46.510;6.686;2023-08-01T14:06:08;2.25;;;1.60;;
57643;SDS011;43474;46.510;6.686;2023-08-01T14:08:36;3.13;;;1.90;;
57643;SDS011;43474;46.510;6.686;2023-08-01T14:11:03;1.90;;;1.55;;
57643;SDS011;43474;46.510;6.686;2023-08-01T14:13:29;2.90;;;1.48;;
57643;SDS011;43474;46.510;6.686;2023-08-01T14:15:55;3.25;;;1.77;;
57643;SDS011;43474;46.510;6.686;2023-08-01T14:18:20;2.72;;;1.48;;
57643;SDS011;43474;46.510;6.686;2023-08-01T14:20:46;2.63;;;1.83;;
57643;SDS011;43474;46.510;6.686;2023-08-01T14:23:12;2.30;;;1.70;;
57643;SDS011;43474;46.510;6.686;2023-08-01T14:25:38;2.70;;;1.42;;
57643;SDS011;43474;46.510;6.686;2023-08-01T14:28:03;2.10;;;1.67;;
57643;SDS011;43474;46.510;6.686;2023-08-01T14:30:29;3.70;;;1.55;;
57643;SDS011;43474;46.510;6.686;2023-08-01T14:33:01;2.53;;;1.80;;
57643;SDS011;43474;46.510;6.686;2023-08-01T14:35:28;2.60;;;1.40;;
57643;SDS011;43474;46.510;6.686;2023-08-01T14:37:54;3.45;;;1.70;;
57643;SDS011;43474;46.510;6.686;2023-08-01T14:40:21;2.78;;;1.40;;
57643;SDS011;43474;46.510;6.686;2023-08-01T14:42:47;2.70;;;1.77;;
57643;SDS011;43474;46.510;6.686;2023-08-01T14:45:13;3.63;;;1.75;;
57643;SDS011;43474;46.510;6.686;2023-08-01T14:47:39;6.50;;;1.80;;
57643;SDS011;43474;46.510;6.686;2023-08-01T14:50:06;2.35;;;1.35;;